createdAt,value
2018-06-17T00:00:29.382Z,8.93
2018-06-17T00:02:57.694Z,7.87
2018-06-17T00:05:25.998Z,9.07
2018-06-17T00:07:54.768Z,8.50
2018-06-17T00:10:23.206Z,9.50
2018-06-17T00:12:51.513Z,9.07
2018-06-17T00:15:19.821Z,8.63
2018-06-17T00:17:48.104Z,9.43
2018-06-17T00:20:16.448Z,9.40
2018-06-17T00:22:44.784Z,9.50
2018-06-17T00:25:13.093Z,12.83
2018-06-17T00:27:41.433Z,9.60
2018-06-17T00:30:09.767Z,9.67
2018-06-17T00:32:38.093Z,9.50
2018-06-17T00:35:06.429Z,9.40
2018-06-17T00:37:34.748Z,9.20
2018-06-17T00:40:03.052Z,9.90
2018-06-17T00:42:31.405Z,11.03
2018-06-17T00:44:59.700Z,9.20
2018-06-17T00:47:28.053Z,10.23
2018-06-17T00:49:56.357Z,10.17
2018-06-17T00:52:24.378Z,8.90
2018-06-17T00:54:52.705Z,9.80
2018-06-17T00:57:32.278Z,9.17
2018-06-17T01:00:00.568Z,10.63
2018-06-17T01:02:28.873Z,9.00
2018-06-17T01:04:57.161Z,9.53
2018-06-17T01:07:25.465Z,10.13
2018-06-17T01:09:54.026Z,8.47
2018-06-17T01:12:22.345Z,8.90
2018-06-17T01:14:50.672Z,8.33
2018-06-17T01:17:18.997Z,10.10
2018-06-17T01:19:47.298Z,9.53
2018-06-17T01:22:15.778Z,8.60
2018-06-17T01:24:44.149Z,9.40
2018-06-17T01:27:13.697Z,9.20
2018-06-17T01:29:42.001Z,9.17
2018-06-17T01:32:11.133Z,7.87
2018-06-17T01:34:39.420Z,8.00
2018-06-17T01:37:07.721Z,8.83
2018-06-17T01:39:36.017Z,8.33
2018-06-17T01:42:04.480Z,8.60
2018-06-17T01:44:32.897Z,8.10
2018-06-17T01:47:01.201Z,8.93
2018-06-17T01:49:29.942Z,9.73
2018-06-17T01:51:58.461Z,8.93
2018-06-17T01:54:26.766Z,8.43
2018-06-17T01:56:55.137Z,9.47
2018-06-17T01:59:23.517Z,7.77
2018-06-17T02:01:51.818Z,8.73
2018-06-17T02:04:25.429Z,7.80
2018-06-17T02:06:59.096Z,8.20
2018-06-17T02:09:32.779Z,9.03
2018-06-17T02:12:06.511Z,8.67
2018-06-17T02:14:40.147Z,8.63
2018-06-17T02:17:09.166Z,7.93
2018-06-17T02:19:37.447Z,9.40
2018-06-17T02:22:06.049Z,8.87
2018-06-17T02:24:34.349Z,8.77
2018-06-17T02:27:02.693Z,7.40
2018-06-17T02:29:31.068Z,8.23
2018-06-17T02:31:59.414Z,8.20
2018-06-17T02:34:27.689Z,9.40
2018-06-17T02:36:56.025Z,8.60
2018-06-17T02:39:24.413Z,9.20
2018-06-17T02:41:54.138Z,9.30
2018-06-17T02:44:22.513Z,9.30
2018-06-17T02:46:56.023Z,8.87
2018-06-17T02:49:29.809Z,8.73
2018-06-17T02:52:03.408Z,8.67
2018-06-17T02:54:37.212Z,8.33
2018-06-17T02:57:05.506Z,9.07
2018-06-17T02:59:33.841Z,8.77
2018-06-17T03:02:02.291Z,7.90
2018-06-17T03:04:30.904Z,8.80
2018-06-17T03:06:59.413Z,8.30
2018-06-17T03:09:27.805Z,9.00
2018-06-17T03:11:56.349Z,8.83
2018-06-17T03:14:25.109Z,7.70
2018-06-17T03:16:53.446Z,7.43
2018-06-17T03:19:22.194Z,8.40
2018-06-17T03:21:50.514Z,7.40
2018-06-17T03:24:23.117Z,7.47
2018-06-17T03:26:56.733Z,8.40
2018-06-17T03:29:31.326Z,7.77
2018-06-17T03:32:04.974Z,7.33
2018-06-17T03:34:33.265Z,6.93
2018-06-17T03:37:01.569Z,7.30
2018-06-17T03:39:30.018Z,7.07
2018-06-17T03:41:58.293Z,7.13
2018-06-17T03:44:26.956Z,6.90
2018-06-17T03:46:55.247Z,6.90
2018-06-17T03:49:24.101Z,7.47
2018-06-17T03:51:52.688Z,6.83
2018-06-17T03:54:20.980Z,7.00
2018-06-17T03:56:49.383Z,6.97
2018-06-17T03:59:17.712Z,6.93
2018-06-17T04:01:46.185Z,7.10
2018-06-17T04:04:14.599Z,6.57
2018-06-17T04:06:43.934Z,6.40
2018-06-17T04:09:13.966Z,5.80
2018-06-17T04:11:42.282Z,6.27
2018-06-17T04:14:10.569Z,5.10
2018-06-17T04:16:38.869Z,6.27
2018-06-17T04:19:07.307Z,5.80
2018-06-17T04:21:35.615Z,6.63
2018-06-17T04:24:03.913Z,6.37
2018-06-17T04:26:32.390Z,6.07
2018-06-17T04:29:00.814Z,5.70
2018-06-17T04:31:29.173Z,6.07
2018-06-17T04:33:57.627Z,5.93
2018-06-17T04:36:26.185Z,7.83
2018-06-17T04:38:54.561Z,6.83
2018-06-17T04:41:23.014Z,6.10
2018-06-17T04:43:51.480Z,6.13
2018-06-17T04:46:19.858Z,5.80
2018-06-17T04:48:48.137Z,5.93
2018-06-17T04:51:16.601Z,5.80
2018-06-17T04:53:44.878Z,6.77
2018-06-17T04:56:13.269Z,5.80
2018-06-17T04:58:41.994Z,6.00
2018-06-17T05:01:10.340Z,6.60
2018-06-17T05:03:38.794Z,5.63
2018-06-17T05:06:07.193Z,5.50
2018-06-17T05:08:35.291Z,5.13
2018-06-17T05:11:03.685Z,5.80
2018-06-17T05:13:32.006Z,4.60
2018-06-17T05:16:00.321Z,5.23
2018-06-17T05:18:28.625Z,4.90
2018-06-17T05:20:56.926Z,5.30
2018-06-17T05:23:25.185Z,5.37
2018-06-17T05:25:53.469Z,7.03
2018-06-17T05:28:21.812Z,5.97
2018-06-17T05:30:50.146Z,5.10
2018-06-17T05:33:18.433Z,6.70
2018-06-17T05:35:46.994Z,4.80
2018-06-17T05:38:15.293Z,4.30
2018-06-17T05:40:43.573Z,4.63
2018-06-17T05:43:11.923Z,4.53
2018-06-17T05:45:40.221Z,4.90
2018-06-17T05:48:08.597Z,4.20
2018-06-17T05:50:36.931Z,4.20
2018-06-17T05:53:05.290Z,4.30
2018-06-17T05:55:33.686Z,4.37
2018-06-17T05:58:01.988Z,4.57
2018-06-17T06:00:30.366Z,5.03
2018-06-17T06:02:58.747Z,4.47
2018-06-17T06:05:27.041Z,4.90
2018-06-17T06:07:55.414Z,4.60
2018-06-17T06:10:23.818Z,4.93
2018-06-17T06:12:52.143Z,4.23
2018-06-17T06:15:20.488Z,3.97
2018-06-17T06:17:48.733Z,4.50
2018-06-17T06:20:17.153Z,4.33
2018-06-17T06:22:45.577Z,3.77
2018-06-17T06:25:13.991Z,3.60
2018-06-17T06:27:42.351Z,3.43
2018-06-17T06:30:10.638Z,4.10
2018-06-17T06:32:38.937Z,3.83
2018-06-17T06:35:07.423Z,3.63
2018-06-17T06:37:36.049Z,3.17
2018-06-17T06:40:04.442Z,3.73
2018-06-17T06:42:32.894Z,3.17
2018-06-17T06:45:01.342Z,3.70
2018-06-17T06:47:29.668Z,3.13
2018-06-17T06:49:58.038Z,3.13
2018-06-17T06:52:26.360Z,3.73
2018-06-17T06:54:54.841Z,3.67
2018-06-17T06:57:23.271Z,4.03
2018-06-17T06:59:51.634Z,3.77
2018-06-17T07:02:31.274Z,3.50
2018-06-17T07:05:11.156Z,3.90
2018-06-17T07:07:50.825Z,3.90
2018-06-17T07:10:23.883Z,3.50
2018-06-17T07:12:52.273Z,3.90
2018-06-17T07:15:32.097Z,3.60
2018-06-17T07:18:34.578Z,3.40
2018-06-17T07:21:02.961Z,2.70
2018-06-17T07:23:31.473Z,3.53
2018-06-17T07:26:37.744Z,2.93
2018-06-17T07:29:17.667Z,3.30
2018-06-17T07:31:46.165Z,2.97
2018-06-17T07:34:15.331Z,3.87
2018-06-17T07:36:44.002Z,3.47
2018-06-17T07:41:34.529Z,3.20
2018-06-17T07:44:02.982Z,2.97
2018-06-17T07:46:31.491Z,2.70
2018-06-17T07:49:45.130Z,4.00
2018-06-17T07:52:26.158Z,2.93
2018-06-17T07:54:54.696Z,2.87
2018-06-17T07:57:24.478Z,3.70
2018-06-17T07:59:52.919Z,2.63
2018-06-17T08:02:21.687Z,3.63
2018-06-17T08:04:50.113Z,3.00
2018-06-17T08:07:19.721Z,2.90
2018-06-17T08:09:55.298Z,3.33
2018-06-17T08:12:23.747Z,3.97
2018-06-17T08:14:52.223Z,3.73
2018-06-17T08:17:20.790Z,3.00
2018-06-17T08:19:49.221Z,3.23
2018-06-17T08:22:17.695Z,2.53
2018-06-17T08:24:46.093Z,2.90
2018-06-17T08:27:14.463Z,3.00
2018-06-17T08:29:42.946Z,2.93
2018-06-17T08:32:11.293Z,2.87
2018-06-17T08:34:39.608Z,3.87
2018-06-17T08:37:08.100Z,3.60
2018-06-17T08:39:36.494Z,3.83
2018-06-17T08:42:05.254Z,3.30
2018-06-17T08:44:33.783Z,3.30
2018-06-17T08:47:02.223Z,3.30
2018-06-17T08:49:30.654Z,3.53
2018-06-17T08:51:59.120Z,3.20
2018-06-17T08:54:27.653Z,2.80
2018-06-17T08:56:56.222Z,3.70
2018-06-17T08:59:25.784Z,3.37
2018-06-17T09:01:54.202Z,3.77
2018-06-17T09:04:22.601Z,3.30
2018-06-17T09:06:50.982Z,4.33
2018-06-17T09:09:19.463Z,3.20
2018-06-17T09:11:48.037Z,3.50
2018-06-17T09:14:16.602Z,3.07
2018-06-17T09:16:45.092Z,3.70
2018-06-17T09:19:13.817Z,3.33
2018-06-17T09:21:42.204Z,3.23
2018-06-17T09:24:10.514Z,3.50
2018-06-17T09:26:38.797Z,4.17
2018-06-17T09:29:11.177Z,2.97
2018-06-17T09:31:39.709Z,2.97
2018-06-17T09:34:08.049Z,4.00
2018-06-17T09:36:36.347Z,2.97
2018-06-17T09:39:07.262Z,3.20
2018-06-17T09:41:35.571Z,4.17
2018-06-17T09:44:03.948Z,2.97
2018-06-17T09:46:32.650Z,3.30
2018-06-17T09:49:01.048Z,3.47
2018-06-17T09:51:29.388Z,3.23
2018-06-17T09:53:57.699Z,3.93
2018-06-17T09:56:26.006Z,3.43
2018-06-17T09:58:54.434Z,3.83
2018-06-17T10:01:22.801Z,3.30
2018-06-17T10:03:51.097Z,3.20
2018-06-17T10:06:19.404Z,3.03
2018-06-17T10:27:21.070Z,3.50
2018-06-17T10:29:50.559Z,2.43
2018-06-17T10:32:22.406Z,3.37
2018-06-17T20:33:54.242Z,3.00
2018-06-17T20:36:27.956Z,3.37
2018-06-17T20:39:01.577Z,2.70
2018-06-17T20:41:35.247Z,3.60
2018-06-17T20:44:04.798Z,4.30
2018-06-17T20:46:33.298Z,3.93
2018-06-17T20:49:02.066Z,3.30
2018-06-17T20:51:30.442Z,2.97
2018-06-17T20:53:59.238Z,3.33
2018-06-17T20:56:28.055Z,2.70
2018-06-17T20:58:56.711Z,3.30
2018-06-17T21:01:25.935Z,2.70
2018-06-17T21:03:54.569Z,3.30
2018-06-17T21:06:37.348Z,3.23
2018-06-17T21:09:48.574Z,3.00
2018-06-17T21:12:27.969Z,2.77
2018-06-17T21:15:22.351Z,2.43
2018-06-17T21:17:56.604Z,2.77
2018-06-17T21:20:38.051Z,2.50
2018-06-17T21:26:15.674Z,2.53
2018-06-17T21:28:49.904Z,4.67
2018-06-17T21:31:28.974Z,3.70
2018-06-17T21:34:17.560Z,3.80
2018-06-17T21:37:10.797Z,3.07
2018-06-17T21:39:45.523Z,3.63
2018-06-17T21:42:27.215Z,4.30
2018-06-17T21:45:15.260Z,4.20
2018-06-17T21:57:25.816Z,3.17
2018-06-17T22:07:02.730Z,2.70
2018-06-17T22:09:47.793Z,3.00
2018-06-17T22:12:29.261Z,3.10
2018-06-17T22:17:15.623Z,3.23
2018-06-17T22:19:56.525Z,2.70
2018-06-17T22:22:28.734Z,3.47
2018-06-17T22:25:00.894Z,2.40
2018-06-17T22:27:37.841Z,3.10
2018-06-17T22:30:06.270Z,2.73
2018-06-17T22:32:34.853Z,3.40
2018-06-17T22:35:03.792Z,3.57
2018-06-17T22:37:32.137Z,2.73
2018-06-17T22:40:01.726Z,2.77
2018-06-17T22:42:30.259Z,2.93
2018-06-17T22:44:58.816Z,2.57
2018-06-17T22:47:32.432Z,2.80
2018-06-17T22:50:00.944Z,2.80
2018-06-17T22:52:29.642Z,2.13
2018-06-17T22:54:58.005Z,2.87
2018-06-17T22:57:32.143Z,2.47
2018-06-17T23:00:05.873Z,2.60
2018-06-17T23:02:39.589Z,3.27
2018-06-17T23:05:13.193Z,2.90
2018-06-17T23:07:47.038Z,2.17
2018-06-17T23:10:15.649Z,2.67
2018-06-17T23:12:44.337Z,2.60
2018-06-17T23:15:12.812Z,2.27
2018-06-17T23:17:41.101Z,2.57
2018-06-17T23:20:09.651Z,2.57
2018-06-17T23:22:38.047Z,2.57
2018-06-17T23:25:06.414Z,2.40
2018-06-17T23:27:34.782Z,2.47
2018-06-17T23:30:03.255Z,2.67
2018-06-17T23:32:31.561Z,2.73
2018-06-17T23:34:59.886Z,2.60
2018-06-17T23:37:29.895Z,2.23
2018-06-17T23:39:58.205Z,3.33
2018-06-17T23:42:32.297Z,2.70
2018-06-17T23:45:00.645Z,2.80
2018-06-17T23:47:34.252Z,2.40
2018-06-17T23:50:08.017Z,3.30
2018-06-17T23:52:41.782Z,2.67
2018-06-17T23:55:15.493Z,2.87
2018-06-17T23:57:43.827Z,2.27
